createdAt,value
2022-08-05T00:03:18.954Z,35.38
2022-08-05T00:08:35.038Z,36.79
2022-08-05T00:13:40.862Z,36.93
2022-08-05T00:18:48.382Z,37.75
2022-08-05T00:24:10.791Z,38.74
2022-08-05T00:29:14.980Z,39.35
2022-08-05T00:34:55.584Z,39.96
2022-08-05T00:39:44.100Z,40.31
2022-08-05T00:44:48.238Z,40.09
2022-08-05T00:49:51.938Z,39.68
2022-08-05T00:54:57.382Z,40.16
2022-08-05T01:00:01.969Z,39.73
2022-08-05T01:05:09.990Z,39.76
2022-08-05T01:10:19.418Z,40.32
2022-08-05T01:15:36.764Z,40.29
2022-08-05T01:20:51.359Z,39.87
2022-08-05T01:26:26.224Z,39.48
2022-08-05T01:31:44.663Z,39.47
2022-08-05T01:36:51.605Z,40.27
2022-08-05T01:41:56.594Z,39.32
2022-08-05T01:47:02.444Z,38.28
2022-08-05T01:52:17.469Z,39.07
2022-08-05T01:58:12.867Z,39.28
2022-08-05T02:02:56.772Z,40.31
2022-08-05T02:08:01.818Z,40.23
2022-08-05T02:13:15.995Z,40.64
2022-08-05T02:18:31.818Z,41.09
2022-08-05T02:23:41.970Z,41.59
2022-08-05T02:28:47.974Z,42.12
2022-08-05T02:33:58.995Z,42.84
2022-08-05T02:39:08.689Z,43.92
2022-08-05T02:44:14.237Z,45.37
2022-08-05T02:49:20.377Z,46.72
2022-08-05T02:54:35.687Z,46.71
2022-08-05T02:59:50.194Z,49.18
2022-08-05T03:04:58.203Z,49.95
2022-08-05T03:10:02.120Z,50.36
2022-08-05T03:15:07.495Z,50.63
2022-08-05T03:20:14.780Z,51.13
2022-08-05T03:25:33.752Z,51.71
2022-08-05T03:30:45.068Z,51.66
2022-08-05T03:35:52.911Z,53.39
2022-08-05T03:41:00.707Z,53.48
2022-08-05T03:46:11.919Z,54.36
2022-08-05T03:52:39.201Z,57.08
2022-08-05T03:56:50.123Z,56.45
2022-08-05T04:01:54.321Z,56.40
2022-08-05T04:07:06.014Z,55.89
2022-08-05T04:12:23.873Z,56.12
2022-08-05T04:17:55.813Z,57.52
2022-08-05T04:22:54.033Z,57.53
2022-08-05T04:28:00.666Z,56.92
2022-08-05T04:33:07.668Z,57.22
2022-08-05T04:38:15.528Z,57.44
2022-08-05T04:43:22.113Z,57.34
2022-08-05T04:48:27.660Z,57.80
2022-08-05T04:53:35.557Z,57.97
2022-08-05T04:58:42.087Z,58.27
2022-08-05T05:03:45.753Z,58.60
2022-08-05T05:08:50.978Z,59.30
2022-08-05T05:13:55.280Z,58.78
2022-08-05T05:19:18.098Z,58.90
2022-08-05T05:24:56.334Z,59.57
2022-08-05T05:30:03.819Z,59.36
2022-08-05T05:35:09.282Z,60.46
2022-08-05T05:40:16.507Z,60.86
2022-08-05T05:45:24.761Z,60.38
2022-08-05T05:50:28.560Z,61.01
2022-08-05T05:55:52.061Z,62.33
2022-08-05T06:01:02.091Z,61.76
2022-08-05T06:06:16.091Z,62.02
2022-08-05T06:11:21.360Z,61.80
2022-08-05T06:16:28.691Z,63.38
2022-08-05T06:21:37.578Z,61.98
2022-08-05T06:26:52.404Z,62.35
2022-08-05T06:31:56.896Z,61.77
2022-08-05T06:37:03.333Z,62.25
2022-08-05T06:42:08.759Z,62.42
2022-08-05T06:47:29.884Z,63.74
2022-08-05T06:52:37.221Z,62.55
2022-08-05T06:57:57.496Z,62.93
2022-08-05T07:03:07.497Z,61.77
2022-08-05T07:08:14.415Z,61.64
2022-08-05T07:13:46.341Z,62.38
2022-08-05T07:18:47.869Z,61.88
2022-08-05T07:23:52.358Z,62.09
2022-08-05T07:28:57.644Z,62.26
2022-08-05T07:34:03.609Z,62.70
2022-08-05T07:39:09.318Z,63.57
2022-08-05T07:44:34.462Z,63.17
2022-08-05T07:49:43.661Z,63.33
2022-08-05T07:54:58.000Z,63.05
2022-08-05T08:00:03.943Z,63.19
2022-08-05T08:05:07.849Z,62.97
2022-08-05T08:10:14.950Z,62.42
2022-08-05T08:15:37.367Z,63.09
2022-08-05T08:21:02.981Z,62.49
2022-08-05T08:26:08.120Z,63.25
2022-08-05T08:31:14.871Z,63.20
2022-08-05T08:36:38.872Z,63.10
2022-08-05T08:41:51.899Z,63.11
2022-08-05T08:47:46.834Z,63.38
2022-08-05T08:52:31.888Z,63.40
2022-08-05T08:57:42.277Z,63.47
2022-08-05T09:02:54.333Z,63.58
2022-08-05T09:07:59.076Z,63.75
2022-08-05T09:13:04.735Z,63.42
2022-08-05T09:18:13.482Z,64.28
2022-08-05T09:23:21.510Z,63.89
2022-08-05T09:28:32.154Z,64.34
2022-08-05T09:33:50.988Z,64.92
2022-08-05T09:38:59.079Z,64.79
2022-08-05T09:44:02.754Z,64.66
2022-08-05T09:49:54.628Z,65.36
2022-08-05T09:54:56.273Z,64.98
2022-08-05T10:00:04.759Z,64.66
2022-08-05T10:05:17.101Z,65.57
2022-08-05T10:10:28.312Z,65.11
2022-08-05T10:15:37.285Z,65.33
2022-08-05T10:20:49.285Z,65.38
2022-08-05T10:25:53.437Z,65.11
2022-08-05T10:32:52.340Z,64.82
2022-08-05T10:36:23.730Z,65.14
2022-08-05T10:41:45.359Z,65.89
2022-08-05T10:46:54.024Z,66.16
2022-08-05T10:52:02.317Z,66.06
2022-08-05T10:57:06.566Z,65.73
2022-08-05T11:02:14.293Z,65.79
2022-08-05T11:08:02.394Z,67.38
2022-08-05T11:13:09.327Z,66.67
2022-08-05T11:18:27.232Z,67.41
2022-08-05T11:24:04.504Z,67.21
2022-08-05T11:29:06.714Z,67.02
2022-08-05T11:34:35.507Z,66.59
2022-08-05T11:40:00.488Z,67.29
2022-08-05T11:45:14.505Z,66.63
2022-08-05T11:50:39.182Z,67.23
2022-08-05T11:55:56.845Z,67.69
2022-08-05T12:01:03.825Z,67.33
2022-08-05T12:06:13.228Z,67.83
2022-08-05T12:11:22.219Z,68.76
2022-08-05T12:16:27.285Z,67.78
2022-08-05T12:21:33.862Z,67.62
2022-08-05T12:26:46.360Z,68.73
2022-08-05T12:31:53.091Z,68.19
2022-08-05T12:37:00.668Z,67.69
2022-08-05T12:42:14.451Z,67.78
2022-08-05T12:47:30.397Z,68.02
2022-08-05T12:52:41.845Z,67.47
2022-08-05T12:58:50.749Z,68.01
2022-08-05T13:03:12.187Z,67.39
2022-08-05T13:08:19.755Z,67.95
2022-08-05T13:14:05.790Z,68.94
2022-08-05T13:18:59.360Z,68.16
2022-08-05T13:24:02.946Z,67.90
2022-08-05T13:29:09.675Z,68.98
2022-08-05T13:34:23.514Z,67.98
2022-08-05T13:40:16.646Z,67.23
2022-08-05T13:44:54.974Z,66.80
2022-08-05T13:49:59.141Z,66.59
2022-08-05T13:55:07.921Z,66.62
2022-08-05T14:00:15.680Z,67.29
2022-08-05T14:05:48.032Z,66.67
2022-08-05T14:10:47.659Z,66.85
2022-08-05T14:16:05.437Z,66.45
2022-08-05T14:22:07.047Z,66.63
2022-08-05T14:26:47.172Z,66.28
2022-08-05T14:32:12.101Z,65.17
2022-08-05T14:37:45.219Z,64.66
2022-08-05T14:42:49.575Z,64.47
2022-08-05T14:48:05.417Z,64.06
2022-08-05T14:53:12.218Z,63.56
2022-08-05T14:58:17.334Z,63.16
2022-08-05T15:03:24.384Z,63.29
2022-08-05T15:08:57.575Z,63.06
2022-08-05T15:13:51.679Z,63.76
2022-08-05T15:18:58.293Z,64.42
2022-08-05T15:24:04.617Z,64.37
2022-08-05T15:29:08.193Z,64.45
2022-08-05T15:34:31.578Z,64.78
2022-08-05T15:41:00.280Z,64.45
2022-08-05T15:45:00.827Z,64.94
2022-08-05T15:50:07.401Z,65.13
2022-08-05T15:55:15.500Z,65.22
2022-08-05T16:00:26.380Z,64.47
2022-08-05T16:05:38.967Z,63.22
2022-08-05T16:10:42.804Z,62.89
2022-08-05T16:15:46.861Z,61.21
2022-08-05T16:20:52.643Z,59.16
2022-08-05T16:26:05.340Z,57.16
2022-08-05T16:31:10.558Z,55.68
2022-08-05T16:36:15.181Z,53.13
2022-08-05T16:42:15.105Z,52.21
2022-08-05T16:46:55.636Z,49.91
2022-08-05T16:52:01.517Z,49.64
2022-08-05T16:57:06.767Z,49.50
2022-08-05T17:02:26.108Z,49.36
2022-08-05T17:07:43.434Z,48.66
2022-08-05T17:12:57.307Z,47.63
2022-08-05T17:18:01.353Z,46.67
2022-08-05T17:23:06.606Z,45.37
2022-08-05T17:28:10.209Z,45.14
2022-08-05T17:33:13.799Z,44.02
2022-08-05T17:38:19.068Z,44.05
2022-08-05T17:43:46.980Z,44.07
2022-08-05T17:48:47.559Z,43.97
2022-08-05T17:53:54.724Z,43.34
2022-08-05T17:58:58.605Z,42.87
2022-08-05T18:04:04.748Z,43.63
2022-08-05T18:09:14.630Z,43.36
2022-08-05T18:14:20.499Z,42.51
2022-08-05T18:19:26.042Z,42.65
2022-08-05T18:24:31.447Z,42.47
2022-08-05T18:29:40.278Z,42.27
2022-08-05T18:34:44.652Z,41.59
2022-08-05T18:41:50.639Z,41.63
2022-08-05T18:45:15.859Z,41.23
2022-08-05T18:50:19.481Z,41.74
2022-08-05T18:55:24.959Z,41.14
2022-08-05T19:00:29.643Z,41.88
2022-08-05T19:06:13.416Z,42.70
2022-08-05T19:11:02.796Z,41.95
2022-08-05T19:16:24.304Z,40.64
2022-08-05T19:21:34.824Z,40.02
2022-08-05T19:26:54.290Z,40.08
2022-08-05T19:31:59.627Z,40.36
2022-08-05T19:37:03.326Z,39.93
2022-08-05T19:42:09.309Z,39.15
2022-08-05T19:47:20.041Z,38.81
2022-08-05T19:52:31.094Z,39.00
2022-08-05T19:57:47.373Z,38.78
2022-08-05T20:03:01.110Z,38.79
2022-08-05T20:08:12.539Z,38.48
2022-08-05T20:13:29.805Z,38.55
2022-08-05T20:18:43.518Z,38.97
2022-08-05T20:23:53.299Z,39.20
2022-08-05T20:29:00.709Z,38.81
2022-08-05T20:34:04.686Z,38.17
2022-08-05T20:39:08.276Z,37.47
2022-08-05T20:44:30.511Z,37.96
2022-08-05T20:49:39.649Z,37.74
2022-08-05T20:54:59.782Z,37.63
2022-08-05T21:00:41.617Z,37.10
2022-08-05T21:05:47.756Z,38.06
2022-08-05T21:10:58.545Z,37.99
2022-08-05T21:16:03.960Z,37.00
2022-08-05T21:21:07.811Z,36.81
2022-08-05T21:26:14.532Z,37.17
2022-08-05T21:31:20.523Z,36.97
2022-08-05T21:36:29.836Z,36.87
2022-08-05T21:41:35.512Z,37.67
2022-08-05T21:46:41.067Z,37.00
2022-08-05T21:52:22.133Z,37.94
2022-08-05T21:57:30.856Z,37.88
2022-08-05T22:02:35.387Z,38.31
2022-08-05T22:07:59.161Z,39.04
2022-08-05T22:14:05.203Z,39.30
2022-08-05T22:18:28.082Z,39.38
2022-08-05T22:24:02.095Z,39.66
2022-08-05T22:28:56.343Z,40.13
2022-08-05T22:34:02.206Z,39.78
2022-08-05T22:39:09.505Z,40.08
2022-08-05T22:44:13.995Z,40.68
2022-08-05T22:50:21.473Z,40.29
2022-08-05T22:54:49.078Z,40.92
2022-08-05T22:59:54.318Z,40.95
2022-08-05T23:05:02.065Z,42.25
2022-08-05T23:10:09.785Z,42.38
2022-08-05T23:15:14.045Z,42.54
2022-08-05T23:20:23.470Z,43.29
2022-08-05T23:25:52.435Z,43.56
2022-08-05T23:30:54.031Z,43.74
2022-08-05T23:36:00.029Z,45.30
2022-08-05T23:41:03.607Z,45.50
2022-08-05T23:46:20.243Z,44.87
2022-08-05T23:51:27.761Z,45.98
2022-08-05T23:56:32.744Z,45.59
